sensor_id;sensor_type;location;lat;lon;timestamp;temperature;humidity
21807;DHT22;11065;50.786;7.840;2023-12-28T00:00:25;11.60;50.70
21807;DHT22;11065;50.786;7.840;2023-12-28T00:02:53;11.60;50.90
21807;DHT22;11065;50.786;7.840;2023-12-28T00:05:21;11.60;50.60
21807;DHT22;11065;50.786;7.840;2023-12-28T00:07:50;11.70;49.90
21807;DHT22;11065;50.786;7.840;2023-12-28T00:10:26;11.70;50.40
21807;DHT22;11065;50.786;7.840;2023-12-28T00:12:54;11.70;50.50
21807;DHT22;11065;50.786;7.840;2023-12-28T00:15:22;11.70;50.70
21807;DHT22;11065;50.786;7.840;2023-12-28T00:17:50;11.80;50.30
21807;DHT22;11065;50.786;7.840;2023-12-28T00:20:18;11.80;50.50
21807;DHT22;11065;50.786;7.840;2023-12-28T00:22:46;11.80;50.10
21807;DHT22;11065;50.786;7.840;2023-12-28T00:25:15;11.80;50.50
21807;DHT22;11065;50.786;7.840;2023-12-28T00:27:43;11.80;50.30
21807;DHT22;11065;50.786;7.840;2023-12-28T00:30:13;11.80;50.80
21807;DHT22;11065;50.786;7.840;2023-12-28T00:32:42;11.90;51.30
21807;DHT22;11065;50.786;7.840;2023-12-28T00:35:12;11.80;51.20
21807;DHT22;11065;50.786;7.840;2023-12-28T00:37:40;11.80;51.10
21807;DHT22;11065;50.786;7.840;2023-12-28T00:40:09;11.80;51.10
21807;DHT22;11065;50.786;7.840;2023-12-28T00:42:38;11.80;51.50
21807;DHT22;11065;50.786;7.840;2023-12-28T00:45:08;11.80;51.60
21807;DHT22;11065;50.786;7.840;2023-12-28T00:47:36;11.70;51.10
21807;DHT22;11065;50.786;7.840;2023-12-28T00:50:05;11.70;51.40
21807;DHT22;11065;50.786;7.840;2023-12-28T00:52:33;11.70;51.50
21807;DHT22;11065;50.786;7.840;2023-12-28T00:55:01;11.60;51.30
21807;DHT22;11065;50.786;7.840;2023-12-28T00:57:29;11.60;51.90
21807;DHT22;11065;50.786;7.840;2023-12-28T00:59:59;11.60;51.90
21807;DHT22;11065;50.786;7.840;2023-12-28T01:02:27;11.60;51.90
21807;DHT22;11065;50.786;7.840;2023-12-28T01:04:55;11.50;51.80
21807;DHT22;11065;50.786;7.840;2023-12-28T01:07:23;11.50;51.80
21807;DHT22;11065;50.786;7.840;2023-12-28T01:09:51;11.50;51.90
21807;DHT22;11065;50.786;7.840;2023-12-28T01:12:19;11.50;52.00
21807;DHT22;11065;50.786;7.840;2023-12-28T01:14:47;11.50;52.00
21807;DHT22;11065;50.786;7.840;2023-12-28T01:17:16;11.40;52.10
21807;DHT22;11065;50.786;7.840;2023-12-28T01:19:45;11.40;52.10
21807;DHT22;11065;50.786;7.840;2023-12-28T01:22:13;11.40;52.20
21807;DHT22;11065;50.786;7.840;2023-12-28T01:24:41;11.50;52.30
21807;DHT22;11065;50.786;7.840;2023-12-28T01:27:09;11.40;52.40
21807;DHT22;11065;50.786;7.840;2023-12-28T01:29:37;11.40;52.60
21807;DHT22;11065;50.786;7.840;2023-12-28T01:32:05;11.30;52.70
21807;DHT22;11065;50.786;7.840;2023-12-28T01:34:34;11.30;52.80
21807;DHT22;11065;50.786;7.840;2023-12-28T01:37:03;11.30;52.80
21807;DHT22;11065;50.786;7.840;2023-12-28T01:39:31;11.30;52.80
21807;DHT22;11065;50.786;7.840;2023-12-28T01:41:59;11.30;53.00
21807;DHT22;11065;50.786;7.840;2023-12-28T01:44:27;11.20;53.00
21807;DHT22;11065;50.786;7.840;2023-12-28T01:46:55;11.30;53.20
21807;DHT22;11065;50.786;7.840;2023-12-28T01:49:23;11.20;53.30
21807;DHT22;11065;50.786;7.840;2023-12-28T01:51:53;11.20;53.30
21807;DHT22;11065;50.786;7.840;2023-12-28T01:54:22;11.20;53.20
21807;DHT22;11065;50.786;7.840;2023-12-28T01:56:50;11.20;53.20
21807;DHT22;11065;50.786;7.840;2023-12-28T01:59:18;11.20;53.30
21807;DHT22;11065;50.786;7.840;2023-12-28T02:01:46;11.10;53.40
21807;DHT22;11065;50.786;7.840;2023-12-28T02:04:15;11.10;53.40
21807;DHT22;11065;50.786;7.840;2023-12-28T02:06:43;11.10;53.50
21807;DHT22;11065;50.786;7.840;2023-12-28T02:09:13;11.10;53.50
21807;DHT22;11065;50.786;7.840;2023-12-28T02:11:41;11.10;53.70
21807;DHT22;11065;50.786;7.840;2023-12-28T02:14:09;11.10;53.70
21807;DHT22;11065;50.786;7.840;2023-12-28T02:16:41;11.10;53.80
21807;DHT22;11065;50.786;7.840;2023-12-28T02:19:18;11.10;53.70
21807;DHT22;11065;50.786;7.840;2023-12-28T02:21:51;11.00;53.60
21807;DHT22;11065;50.786;7.840;2023-12-28T02:24:20;11.00;53.60
21807;DHT22;11065;50.786;7.840;2023-12-28T02:26:50;11.10;53.60
21807;DHT22;11065;50.786;7.840;2023-12-28T02:29:18;11.00;53.60
21807;DHT22;11065;50.786;7.840;2023-12-28T02:31:51;11.00;53.60
21807;DHT22;11065;50.786;7.840;2023-12-28T02:34:32;11.00;53.70
21807;DHT22;11065;50.786;7.840;2023-12-28T02:37:03;11.10;53.80
21807;DHT22;11065;50.786;7.840;2023-12-28T02:39:31;11.10;53.80
21807;DHT22;11065;50.786;7.840;2023-12-28T02:42:01;11.10;53.80
21807;DHT22;11065;50.786;7.840;2023-12-28T02:44:30;11.10;53.80
21807;DHT22;11065;50.786;7.840;2023-12-28T02:46:58;11.10;53.70
21807;DHT22;11065;50.786;7.840;2023-12-28T02:49:26;11.10;53.80
21807;DHT22;11065;50.786;7.840;2023-12-28T02:51:54;11.20;54.00
21807;DHT22;11065;50.786;7.840;2023-12-28T02:54:22;11.10;54.00
21807;DHT22;11065;50.786;7.840;2023-12-28T02:56:50;11.20;54.10
21807;DHT22;11065;50.786;7.840;2023-12-28T02:59:19;11.20;54.00
21807;DHT22;11065;50.786;7.840;2023-12-28T03:01:47;11.20;54.00
21807;DHT22;11065;50.786;7.840;2023-12-28T03:04:17;11.20;54.00
21807;DHT22;11065;50.786;7.840;2023-12-28T03:06:46;11.20;54.00
21807;DHT22;11065;50.786;7.840;2023-12-28T03:09:14;11.20;54.00
21807;DHT22;11065;50.786;7.840;2023-12-28T03:11:42;11.30;54.00
21807;DHT22;11065;50.786;7.840;2023-12-28T03:14:10;11.30;53.90
21807;DHT22;11065;50.786;7.840;2023-12-28T03:16:39;11.30;53.90
21807;DHT22;11065;50.786;7.840;2023-12-28T03:19:07;11.30;54.00
21807;DHT22;11065;50.786;7.840;2023-12-28T03:21:38;11.30;54.00
21807;DHT22;11065;50.786;7.840;2023-12-28T03:24:07;11.30;54.00
21807;DHT22;11065;50.786;7.840;2023-12-28T03:26:38;11.30;54.00
21807;DHT22;11065;50.786;7.840;2023-12-28T03:29:06;11.30;54.10
21807;DHT22;11065;50.786;7.840;2023-12-28T03:31:40;11.30;54.50
21807;DHT22;11065;50.786;7.840;2023-12-28T03:34:08;11.30;54.20
21807;DHT22;11065;50.786;7.840;2023-12-28T03:36:36;11.30;54.20
21807;DHT22;11065;50.786;7.840;2023-12-28T03:39:04;11.20;54.20
21807;DHT22;11065;50.786;7.840;2023-12-28T03:41:32;11.30;54.30
21807;DHT22;11065;50.786;7.840;2023-12-28T03:44:00;11.30;54.50
21807;DHT22;11065;50.786;7.840;2023-12-28T03:46:28;11.20;54.40
21807;DHT22;11065;50.786;7.840;2023-12-28T03:48:57;11.20;54.40
21807;DHT22;11065;50.786;7.840;2023-12-28T03:51:26;11.20;54.60
21807;DHT22;11065;50.786;7.840;2023-12-28T03:53:54;11.30;54.60
21807;DHT22;11065;50.786;7.840;2023-12-28T03:56:23;11.30;54.70
21807;DHT22;11065;50.786;7.840;2023-12-28T03:58:53;11.20;54.90
21807;DHT22;11065;50.786;7.840;2023-12-28T04:01:22;11.20;54.80
21807;DHT22;11065;50.786;7.840;2023-12-28T04:03:50;11.20;54.80
21807;DHT22;11065;50.786;7.840;2023-12-28T04:06:19;11.20;55.30
21807;DHT22;11065;50.786;7.840;2023-12-28T04:08:47;11.10;54.90
21807;DHT22;11065;50.786;7.840;2023-12-28T04:11:15;11.20;55.00
21807;DHT22;11065;50.786;7.840;2023-12-28T04:13:43;11.10;55.00
21807;DHT22;11065;50.786;7.840;2023-12-28T04:16:12;11.10;55.00
21807;DHT22;11065;50.786;7.840;2023-12-28T04:18:40;11.10;55.10
21807;DHT22;11065;50.786;7.840;2023-12-28T04:21:10;11.10;55.10
21807;DHT22;11065;50.786;7.840;2023-12-28T04:23:41;11.10;55.10
21807;DHT22;11065;50.786;7.840;2023-12-28T04:26:09;11.10;55.10
21807;DHT22;11065;50.786;7.840;2023-12-28T04:28:37;11.10;55.10
21807;DHT22;11065;50.786;7.840;2023-12-28T04:31:05;11.00;55.10
21807;DHT22;11065;50.786;7.840;2023-12-28T04:33:34;11.10;55.20
21807;DHT22;11065;50.786;7.840;2023-12-28T04:36:03;11.00;55.20
21807;DHT22;11065;50.786;7.840;2023-12-28T04:38:32;11.00;55.40
21807;DHT22;11065;50.786;7.840;2023-12-28T04:41:01;11.00;55.40
21807;DHT22;11065;50.786;7.840;2023-12-28T04:43:29;11.00;55.40
21807;DHT22;11065;50.786;7.840;2023-12-28T04:45:57;10.90;55.40
21807;DHT22;11065;50.786;7.840;2023-12-28T04:48:29;10.90;55.40
21807;DHT22;11065;50.786;7.840;2023-12-28T04:50:57;10.90;55.40
21807;DHT22;11065;50.786;7.840;2023-12-28T04:53:25;10.90;55.60
21807;DHT22;11065;50.786;7.840;2023-12-28T04:55:55;10.90;55.60
21807;DHT22;11065;50.786;7.840;2023-12-28T04:58:24;10.80;55.60
21807;DHT22;11065;50.786;7.840;2023-12-28T05:00:52;10.80;55.70
21807;DHT22;11065;50.786;7.840;2023-12-28T05:03:20;10.80;55.70
21807;DHT22;11065;50.786;7.840;2023-12-28T05:05:48;10.80;55.90
21807;DHT22;11065;50.786;7.840;2023-12-28T05:08:16;10.80;56.00
21807;DHT22;11065;50.786;7.840;2023-12-28T05:10:44;10.80;56.10
21807;DHT22;11065;50.786;7.840;2023-12-28T05:13:12;10.80;56.30
21807;DHT22;11065;50.786;7.840;2023-12-28T05:15:41;10.70;56.40
21807;DHT22;11065;50.786;7.840;2023-12-28T05:18:09;10.80;56.20
21807;DHT22;11065;50.786;7.840;2023-12-28T05:20:37;10.80;56.20
21807;DHT22;11065;50.786;7.840;2023-12-28T05:23:07;10.70;56.20
21807;DHT22;11065;50.786;7.840;2023-12-28T05:25:35;10.70;57.20
21807;DHT22;11065;50.786;7.840;2023-12-28T05:28:03;10.70;56.70
21807;DHT22;11065;50.786;7.840;2023-12-28T05:30:31;10.70;56.60
21807;DHT22;11065;50.786;7.840;2023-12-28T05:33:01;10.80;56.90
21807;DHT22;11065;50.786;7.840;2023-12-28T05:35:29;10.70;57.00
21807;DHT22;11065;50.786;7.840;2023-12-28T05:37:57;10.80;56.90
21807;DHT22;11065;50.786;7.840;2023-12-28T05:40:25;10.70;56.80
21807;DHT22;11065;50.786;7.840;2023-12-28T05:42:53;10.80;57.00
21807;DHT22;11065;50.786;7.840;2023-12-28T05:45:21;10.70;57.20
21807;DHT22;11065;50.786;7.840;2023-12-28T05:47:49;10.80;57.00
21807;DHT22;11065;50.786;7.840;2023-12-28T05:50:19;10.70;56.90
21807;DHT22;11065;50.786;7.840;2023-12-28T05:52:47;10.80;56.80
21807;DHT22;11065;50.786;7.840;2023-12-28T05:55:15;10.80;56.90
21807;DHT22;11065;50.786;7.840;2023-12-28T05:57:43;10.80;57.50
21807;DHT22;11065;50.786;7.840;2023-12-28T06:00:12;10.70;57.20
21807;DHT22;11065;50.786;7.840;2023-12-28T06:02:40;10.70;57.00
21807;DHT22;11065;50.786;7.840;2023-12-28T06:05:08;10.80;57.00
21807;DHT22;11065;50.786;7.840;2023-12-28T06:07:38;10.80;57.10
21807;DHT22;11065;50.786;7.840;2023-12-28T06:10:08;10.80;57.10
21807;DHT22;11065;50.786;7.840;2023-12-28T06:12:36;10.80;57.00
21807;DHT22;11065;50.786;7.840;2023-12-28T06:15:05;10.80;57.70
21807;DHT22;11065;50.786;7.840;2023-12-28T06:17:33;10.80;57.40
21807;DHT22;11065;50.786;7.840;2023-12-28T06:20:01;10.80;57.60
21807;DHT22;11065;50.786;7.840;2023-12-28T06:22:30;10.80;57.40
21807;DHT22;11065;50.786;7.840;2023-12-28T06:24:59;10.80;57.30
21807;DHT22;11065;50.786;7.840;2023-12-28T06:27:27;10.80;57.50
21807;DHT22;11065;50.786;7.840;2023-12-28T06:29:55;10.80;57.60
21807;DHT22;11065;50.786;7.840;2023-12-28T06:32:23;10.80;57.80
21807;DHT22;11065;50.786;7.840;2023-12-28T06:34:52;10.80;57.60
21807;DHT22;11065;50.786;7.840;2023-12-28T06:37:20;10.80;57.40
21807;DHT22;11065;50.786;7.840;2023-12-28T06:39:48;10.80;57.60
21807;DHT22;11065;50.786;7.840;2023-12-28T06:42:17;10.80;57.60
21807;DHT22;11065;50.786;7.840;2023-12-28T06:44:45;10.80;57.40
21807;DHT22;11065;50.786;7.840;2023-12-28T06:47:13;10.80;57.80
21807;DHT22;11065;50.786;7.840;2023-12-28T06:49:41;10.80;57.60
21807;DHT22;11065;50.786;7.840;2023-12-28T06:52:09;10.90;57.80
21807;DHT22;11065;50.786;7.840;2023-12-28T06:54:37;10.90;57.80
21807;DHT22;11065;50.786;7.840;2023-12-28T06:57:05;10.80;57.60
21807;DHT22;11065;50.786;7.840;2023-12-28T06:59:34;10.80;57.70
21807;DHT22;11065;50.786;7.840;2023-12-28T07:02:02;10.90;57.60
21807;DHT22;11065;50.786;7.840;2023-12-28T07:04:30;10.90;57.70
21807;DHT22;11065;50.786;7.840;2023-12-28T07:06:59;10.90;57.60
21807;DHT22;11065;50.786;7.840;2023-12-28T07:09:27;10.80;57.50
21807;DHT22;11065;50.786;7.840;2023-12-28T07:11:55;10.90;57.40
21807;DHT22;11065;50.786;7.840;2023-12-28T07:14:23;10.90;57.70
21807;DHT22;11065;50.786;7.840;2023-12-28T07:16:52;10.90;57.60
21807;DHT22;11065;50.786;7.840;2023-12-28T07:19:20;10.90;57.60
21807;DHT22;11065;50.786;7.840;2023-12-28T07:21:48;10.90;57.50
21807;DHT22;11065;50.786;7.840;2023-12-28T07:24:16;10.90;57.40
21807;DHT22;11065;50.786;7.840;2023-12-28T07:26:44;10.80;57.50
21807;DHT22;11065;50.786;7.840;2023-12-28T07:29:12;10.80;57.60
21807;DHT22;11065;50.786;7.840;2023-12-28T07:31:40;10.90;57.50
21807;DHT22;11065;50.786;7.840;2023-12-28T07:34:10;10.80;57.50
21807;DHT22;11065;50.786;7.840;2023-12-28T07:36:37;10.80;57.50
21807;DHT22;11065;50.786;7.840;2023-12-28T07:39:07;10.80;57.40
21807;DHT22;11065;50.786;7.840;2023-12-28T07:41:35;10.80;57.50
21807;DHT22;11065;50.786;7.840;2023-12-28T07:44:03;10.80;57.80
21807;DHT22;11065;50.786;7.840;2023-12-28T07:46:31;10.80;57.60
21807;DHT22;11065;50.786;7.840;2023-12-28T07:49:00;10.80;57.60
21807;DHT22;11065;50.786;7.840;2023-12-28T07:51:29;10.80;57.70
21807;DHT22;11065;50.786;7.840;2023-12-28T07:53:57;10.80;57.70
21807;DHT22;11065;50.786;7.840;2023-12-28T07:56:26;10.80;57.80
21807;DHT22;11065;50.786;7.840;2023-12-28T07:58:54;10.80;57.80
21807;DHT22;11065;50.786;7.840;2023-12-28T08:01:22;10.80;57.70
21807;DHT22;11065;50.786;7.840;2023-12-28T08:03:50;10.80;57.70
21807;DHT22;11065;50.786;7.840;2023-12-28T08:06:18;10.80;57.90
21807;DHT22;11065;50.786;7.840;2023-12-28T08:08:47;10.80;57.70
21807;DHT22;11065;50.786;7.840;2023-12-28T08:11:15;10.90;57.60
21807;DHT22;11065;50.786;7.840;2023-12-28T08:13:43;10.90;57.60
21807;DHT22;11065;50.786;7.840;2023-12-28T08:16:11;10.80;57.60
21807;DHT22;11065;50.786;7.840;2023-12-28T08:18:39;10.90;57.60
21807;DHT22;11065;50.786;7.840;2023-12-28T08:21:07;10.90;57.60
21807;DHT22;11065;50.786;7.840;2023-12-28T08:23:35;10.90;57.60
21807;DHT22;11065;50.786;7.840;2023-12-28T08:26:04;11.00;57.60
21807;DHT22;11065;50.786;7.840;2023-12-28T08:28:33;11.00;57.70
21807;DHT22;11065;50.786;7.840;2023-12-28T08:31:01;11.00;57.70
21807;DHT22;11065;50.786;7.840;2023-12-28T08:33:30;11.00;57.70
21807;DHT22;11065;50.786;7.840;2023-12-28T08:35:58;11.10;57.70
21807;DHT22;11065;50.786;7.840;2023-12-28T08:38:26;11.10;57.70
21807;DHT22;11065;50.786;7.840;2023-12-28T08:40:55;11.10;57.60
21807;DHT22;11065;50.786;7.840;2023-12-28T08:43:24;11.10;57.50
21807;DHT22;11065;50.786;7.840;2023-12-28T08:45:53;11.20;57.70
21807;DHT22;11065;50.786;7.840;2023-12-28T08:48:22;11.20;57.60
21807;DHT22;11065;50.786;7.840;2023-12-28T08:50:51;11.20;57.60
21807;DHT22;11065;50.786;7.840;2023-12-28T08:53:18;11.20;57.50
21807;DHT22;11065;50.786;7.840;2023-12-28T08:55:46;11.30;57.50
21807;DHT22;11065;50.786;7.840;2023-12-28T08:58:15;11.30;57.50
21807;DHT22;11065;50.786;7.840;2023-12-28T09:00:44;11.30;57.50
21807;DHT22;11065;50.786;7.840;2023-12-28T09:03:12;11.30;57.30
21807;DHT22;11065;50.786;7.840;2023-12-28T09:05:40;11.40;57.30
21807;DHT22;11065;50.786;7.840;2023-12-28T09:08:09;11.40;57.30
21807;DHT22;11065;50.786;7.840;2023-12-28T09:10:37;11.40;57.30
21807;DHT22;11065;50.786;7.840;2023-12-28T09:13:06;11.40;57.30
21807;DHT22;11065;50.786;7.840;2023-12-28T09:15:34;11.40;57.30
21807;DHT22;11065;50.786;7.840;2023-12-28T09:18:03;11.40;57.20
21807;DHT22;11065;50.786;7.840;2023-12-28T09:20:32;11.40;57.20
21807;DHT22;11065;50.786;7.840;2023-12-28T09:23:02;11.40;57.30
21807;DHT22;11065;50.786;7.840;2023-12-28T09:25:30;11.50;57.40
21807;DHT22;11065;50.786;7.840;2023-12-28T09:27:58;11.50;57.50
21807;DHT22;11065;50.786;7.840;2023-12-28T09:30:26;11.60;57.40
21807;DHT22;11065;50.786;7.840;2023-12-28T09:32:56;11.60;57.30
21807;DHT22;11065;50.786;7.840;2023-12-28T09:35:26;11.70;57.30
21807;DHT22;11065;50.786;7.840;2023-12-28T09:37:54;11.70;57.10
21807;DHT22;11065;50.786;7.840;2023-12-28T09:40:24;11.70;57.10
21807;DHT22;11065;50.786;7.840;2023-12-28T09:42:57;11.70;57.00
21807;DHT22;11065;50.786;7.840;2023-12-28T09:45:26;11.80;57.00
21807;DHT22;11065;50.786;7.840;2023-12-28T09:47:54;11.70;56.90
21807;DHT22;11065;50.786;7.840;2023-12-28T09:50:22;11.80;56.90
21807;DHT22;11065;50.786;7.840;2023-12-28T09:52:54;11.90;57.00
21807;DHT22;11065;50.786;7.840;2023-12-28T09:55:22;11.80;56.80
21807;DHT22;11065;50.786;7.840;2023-12-28T09:57:51;11.80;56.80
21807;DHT22;11065;50.786;7.840;2023-12-28T10:00:20;11.90;56.80
21807;DHT22;11065;50.786;7.840;2023-12-28T10:02:47;11.90;56.80
21807;DHT22;11065;50.786;7.840;2023-12-28T10:05:15;12.00;56.80
21807;DHT22;11065;50.786;7.840;2023-12-28T10:07:44;11.90;56.60
21807;DHT22;11065;50.786;7.840;2023-12-28T10:10:18;12.00;56.80
21807;DHT22;11065;50.786;7.840;2023-12-28T10:12:49;12.10;56.80
21807;DHT22;11065;50.786;7.840;2023-12-28T10:15:17;12.10;56.80
21807;DHT22;11065;50.786;7.840;2023-12-28T10:17:46;12.20;56.90
21807;DHT22;11065;50.786;7.840;2023-12-28T10:20:16;12.20;56.80
21807;DHT22;11065;50.786;7.840;2023-12-28T10:22:44;12.30;56.90
21807;DHT22;11065;50.786;7.840;2023-12-28T10:25:12;12.40;56.80
21807;DHT22;11065;50.786;7.840;2023-12-28T10:27:42;12.60;56.80
21807;DHT22;11065;50.786;7.840;2023-12-28T10:30:11;12.60;57.10
21807;DHT22;11065;50.786;7.840;2023-12-28T10:32:40;12.80;58.00
21807;DHT22;11065;50.786;7.840;2023-12-28T10:35:09;13.20;57.90
21807;DHT22;11065;50.786;7.840;2023-12-28T10:37:39;13.40;57.60
21807;DHT22;11065;50.786;7.840;2023-12-28T10:40:12;13.70;58.40
21807;DHT22;11065;50.786;7.840;2023-12-28T10:42:49;14.20;58.90
21807;DHT22;11065;50.786;7.840;2023-12-28T10:45:20;14.80;59.30
21807;DHT22;11065;50.786;7.840;2023-12-28T10:47:54;15.40;58.40
21807;DHT22;11065;50.786;7.840;2023-12-28T10:50:26;16.20;58.90
21807;DHT22;11065;50.786;7.840;2023-12-28T10:53:04;16.80;58.70
21807;DHT22;11065;50.786;7.840;2023-12-28T10:55:43;17.40;56.20
21807;DHT22;11065;50.786;7.840;2023-12-28T10:58:21;17.90;56.30
21807;DHT22;11065;50.786;7.840;2023-12-28T11:00:56;18.40;55.50
21807;DHT22;11065;50.786;7.840;2023-12-28T11:03:30;18.80;53.50
21807;DHT22;11065;50.786;7.840;2023-12-28T11:06:02;19.20;54.30
21807;DHT22;11065;50.786;7.840;2023-12-28T11:08:33;19.50;53.40
21807;DHT22;11065;50.786;7.840;2023-12-28T11:11:02;19.80;53.80
21807;DHT22;11065;50.786;7.840;2023-12-28T11:13:33;20.20;54.40
21807;DHT22;11065;50.786;7.840;2023-12-28T11:16:03;20.60;54.40
21807;DHT22;11065;50.786;7.840;2023-12-28T11:18:31;21.10;52.80
21807;DHT22;11065;50.786;7.840;2023-12-28T11:21:00;21.50;52.80
21807;DHT22;11065;50.786;7.840;2023-12-28T11:23:28;21.80;49.50
21807;DHT22;11065;50.786;7.840;2023-12-28T11:25:56;22.10;51.10
21807;DHT22;11065;50.786;7.840;2023-12-28T11:28:24;22.50;49.40
21807;DHT22;11065;50.786;7.840;2023-12-28T11:30:56;22.90;50.50
21807;DHT22;11065;50.786;7.840;2023-12-28T11:33:30;23.10;48.60
21807;DHT22;11065;50.786;7.840;2023-12-28T11:35:59;23.30;47.00
21807;DHT22;11065;50.786;7.840;2023-12-28T11:38:28;23.50;47.60
21807;DHT22;11065;50.786;7.840;2023-12-28T11:40:56;23.60;47.30
21807;DHT22;11065;50.786;7.840;2023-12-28T11:43:27;23.70;46.70
21807;DHT22;11065;50.786;7.840;2023-12-28T11:46:01;23.90;46.90
21807;DHT22;11065;50.786;7.840;2023-12-28T11:48:32;24.10;47.30
21807;DHT22;11065;50.786;7.840;2023-12-28T11:51:00;24.10;46.00
21807;DHT22;11065;50.786;7.840;2023-12-28T11:53:29;24.20;45.60
21807;DHT22;11065;50.786;7.840;2023-12-28T11:56:00;24.30;45.00
21807;DHT22;11065;50.786;7.840;2023-12-28T11:58:30;24.20;44.60
21807;DHT22;11065;50.786;7.840;2023-12-28T12:01:01;24.30;45.10
21807;DHT22;11065;50.786;7.840;2023-12-28T12:03:29;24.20;43.50
21807;DHT22;11065;50.786;7.840;2023-12-28T12:05:58;24.20;41.70
21807;DHT22;11065;50.786;7.840;2023-12-28T12:08:26;24.00;42.10
21807;DHT22;11065;50.786;7.840;2023-12-28T12:11:00;23.80;42.90
21807;DHT22;11065;50.786;7.840;2023-12-28T12:13:30;23.50;41.10
21807;DHT22;11065;50.786;7.840;2023-12-28T12:15:59;23.40;43.20
21807;DHT22;11065;50.786;7.840;2023-12-28T12:18:34;23.50;43.50
21807;DHT22;11065;50.786;7.840;2023-12-28T12:21:03;23.50;42.50
21807;DHT22;11065;50.786;7.840;2023-12-28T12:23:33;23.50;43.40
21807;DHT22;11065;50.786;7.840;2023-12-28T12:26:04;23.50;42.60
21807;DHT22;11065;50.786;7.840;2023-12-28T12:28:32;23.50;42.50
21807;DHT22;11065;50.786;7.840;2023-12-28T12:31:00;23.30;41.30
21807;DHT22;11065;50.786;7.840;2023-12-28T12:33:31;23.10;42.10
21807;DHT22;11065;50.786;7.840;2023-12-28T12:36:01;22.90;41.80
21807;DHT22;11065;50.786;7.840;2023-12-28T12:38:29;22.70;41.40
21807;DHT22;11065;50.786;7.840;2023-12-28T12:40:58;22.50;40.80
21807;DHT22;11065;50.786;7.840;2023-12-28T12:43:26;22.40;41.50
21807;DHT22;11065;50.786;7.840;2023-12-28T12:45:54;22.30;42.10
21807;DHT22;11065;50.786;7.840;2023-12-28T12:48:22;22.10;41.30
21807;DHT22;11065;50.786;7.840;2023-12-28T12:50:51;22.00;41.40
21807;DHT22;11065;50.786;7.840;2023-12-28T12:53:20;21.70;40.30
21807;DHT22;11065;50.786;7.840;2023-12-28T12:55:54;21.50;41.00
21807;DHT22;11065;50.786;7.840;2023-12-28T12:58:23;21.20;41.30
21807;DHT22;11065;50.786;7.840;2023-12-28T13:00:51;21.00;40.40
21807;DHT22;11065;50.786;7.840;2023-12-28T13:03:20;20.80;41.60
21807;DHT22;11065;50.786;7.840;2023-12-28T13:05:48;20.60;41.10
21807;DHT22;11065;50.786;7.840;2023-12-28T13:08:16;20.50;41.80
21807;DHT22;11065;50.786;7.840;2023-12-28T13:10:45;20.40;42.20
21807;DHT22;11065;50.786;7.840;2023-12-28T13:13:13;20.20;42.40
21807;DHT22;11065;50.786;7.840;2023-12-28T13:15:41;20.10;41.80
21807;DHT22;11065;50.786;7.840;2023-12-28T13:18:10;19.90;42.00
21807;DHT22;11065;50.786;7.840;2023-12-28T13:20:38;19.70;42.00
21807;DHT22;11065;50.786;7.840;2023-12-28T13:23:07;19.50;42.30
21807;DHT22;11065;50.786;7.840;2023-12-28T13:25:35;19.40;42.60
21807;DHT22;11065;50.786;7.840;2023-12-28T13:28:05;19.20;42.30
21807;DHT22;11065;50.786;7.840;2023-12-28T13:30:34;19.00;42.30
21807;DHT22;11065;50.786;7.840;2023-12-28T13:33:03;18.70;42.50
21807;DHT22;11065;50.786;7.840;2023-12-28T13:35:32;18.60;42.50
21807;DHT22;11065;50.786;7.840;2023-12-28T13:38:00;18.40;42.70
21807;DHT22;11065;50.786;7.840;2023-12-28T13:40:28;18.20;42.50
21807;DHT22;11065;50.786;7.840;2023-12-28T13:42:57;18.00;43.00
21807;DHT22;11065;50.786;7.840;2023-12-28T13:45:27;17.90;42.80
21807;DHT22;11065;50.786;7.840;2023-12-28T13:47:55;17.70;43.00
21807;DHT22;11065;50.786;7.840;2023-12-28T13:50:23;17.60;43.30
21807;DHT22;11065;50.786;7.840;2023-12-28T13:52:51;17.50;43.20
21807;DHT22;11065;50.786;7.840;2023-12-28T13:55:19;17.40;42.50
21807;DHT22;11065;50.786;7.840;2023-12-28T13:57:47;17.30;43.00
21807;DHT22;11065;50.786;7.840;2023-12-28T14:00:16;17.20;42.90
21807;DHT22;11065;50.786;7.840;2023-12-28T14:02:45;17.10;42.70
21807;DHT22;11065;50.786;7.840;2023-12-28T14:05:13;16.90;42.80
21807;DHT22;11065;50.786;7.840;2023-12-28T14:07:42;16.80;43.00
21807;DHT22;11065;50.786;7.840;2023-12-28T14:10:10;16.60;42.70
21807;DHT22;11065;50.786;7.840;2023-12-28T14:12:38;16.60;43.10
21807;DHT22;11065;50.786;7.840;2023-12-28T14:15:07;16.40;42.90
21807;DHT22;11065;50.786;7.840;2023-12-28T14:17:35;16.30;43.10
21807;DHT22;11065;50.786;7.840;2023-12-28T14:20:05;16.10;43.30
21807;DHT22;11065;50.786;7.840;2023-12-28T14:22:36;16.00;43.40
21807;DHT22;11065;50.786;7.840;2023-12-28T14:25:05;15.90;43.50
21807;DHT22;11065;50.786;7.840;2023-12-28T14:27:34;15.80;43.70
21807;DHT22;11065;50.786;7.840;2023-12-28T14:30:03;15.70;43.80
21807;DHT22;11065;50.786;7.840;2023-12-28T14:32:34;15.60;43.90
21807;DHT22;11065;50.786;7.840;2023-12-28T14:35:05;15.60;44.00
21807;DHT22;11065;50.786;7.840;2023-12-28T14:37:33;15.50;44.00
21807;DHT22;11065;50.786;7.840;2023-12-28T14:40:02;15.40;44.20
21807;DHT22;11065;50.786;7.840;2023-12-28T14:42:33;15.40;44.30
21807;DHT22;11065;50.786;7.840;2023-12-28T14:45:01;15.30;44.40
21807;DHT22;11065;50.786;7.840;2023-12-28T14:47:29;15.30;44.40
21807;DHT22;11065;50.786;7.840;2023-12-28T14:49:58;15.20;44.50
21807;DHT22;11065;50.786;7.840;2023-12-28T14:52:28;15.10;44.50
21807;DHT22;11065;50.786;7.840;2023-12-28T14:54:56;15.10;44.40
21807;DHT22;11065;50.786;7.840;2023-12-28T14:57:24;15.00;44.40
21807;DHT22;11065;50.786;7.840;2023-12-28T14:59:53;15.00;44.50
21807;DHT22;11065;50.786;7.840;2023-12-28T15:02:21;14.90;44.50
21807;DHT22;11065;50.786;7.840;2023-12-28T15:04:49;14.80;44.60
21807;DHT22;11065;50.786;7.840;2023-12-28T15:07:17;14.80;44.70
21807;DHT22;11065;50.786;7.840;2023-12-28T15:09:47;14.70;44.70
21807;DHT22;11065;50.786;7.840;2023-12-28T15:12:16;14.70;44.80
21807;DHT22;11065;50.786;7.840;2023-12-28T15:14:44;14.50;44.90
21807;DHT22;11065;50.786;7.840;2023-12-28T15:17:14;14.50;45.00
21807;DHT22;11065;50.786;7.840;2023-12-28T15:19:42;14.40;45.00
21807;DHT22;11065;50.786;7.840;2023-12-28T15:22:11;14.40;45.10
21807;DHT22;11065;50.786;7.840;2023-12-28T15:24:40;14.20;45.10
21807;DHT22;11065;50.786;7.840;2023-12-28T15:27:09;14.20;45.30
21807;DHT22;11065;50.786;7.840;2023-12-28T15:29:38;14.20;45.40
21807;DHT22;11065;50.786;7.840;2023-12-28T15:32:06;14.10;45.40
21807;DHT22;11065;50.786;7.840;2023-12-28T15:34:34;14.00;45.60
21807;DHT22;11065;50.786;7.840;2023-12-28T15:37:02;13.90;45.60
21807;DHT22;11065;50.786;7.840;2023-12-28T15:39:31;13.90;45.70